Time;durP1;ratioP1;P1;durP2;ratioP2;P2;SDS_P1;SDS_P2;PMS_P1;PMS_P2;Temp;Humidity;BMP_temperature;BMP_pressure;BME280_temperature;BME280_humidity;BME280_pressure;Samples;Min_cycle;Max_cycle;Signal;HPM_P1;HPM_P2
2021/07/04 00:00:47;;;;;;;5.05;2.03;;;;;;;;;;143731;593;46021;-91
2021/07/04 00:03:14;;;;;;;5.05;2.25;;;;;;;;;;143734;967;46020;-92
2021/07/04 00:05:48;;;;;;;2.72;2.40;;;;;;;;;;143734;589;46012;-93
2021/07/04 00:08:18;;;;;;;4.93;2.50;;;;;;;;;;143731;635;47022;-90
2021/07/04 00:10:49;;;;;;;2.85;2.30;;;;;;;;;;143731;564;46010;-91
2021/07/04 00:13:18;;;;;;;4.05;2.03;;;;;;;;;;143734;885;46047;-89
2021/07/04 00:15:45;;;;;;;5.28;2.10;;;;;;;;;;143733;595;46013;-93
2021/07/04 00:18:15;;;;;;;3.00;2.45;;;;;;;;;;143730;859;47020;-92
2021/07/04 00:20:43;;;;;;;2.83;2.17;;;;;;;;;;143731;979;46012;-92
2021/07/04 00:23:12;;;;;;;5.25;2.30;;;;;;;;;;143732;582;46021;-93
2021/07/04 00:25:41;;;;;;;4.30;2.10;;;;;;;;;;143733;793;46012;-89
2021/07/04 00:28:08;;;;;;;5.30;2.25;;;;;;;;;;143732;571;46012;-92
2021/07/04 00:30:35;;;;;;;2.90;2.03;;;;;;;;;;143730;661;46012;-90
2021/07/04 00:33:03;;;;;;;6.55;2.65;;;;;;;;;;143731;982;47020;-92
2021/07/04 00:35:30;;;;;;;2.70;2.00;;;;;;;;;;143733;564;46012;-93
2021/07/04 00:37:57;;;;;;;2.40;1.80;;;;;;;;;;143731;975;47022;-90
2021/07/04 00:40:25;;;;;;;3.20;1.90;;;;;;;;;;143730;574;46047;-91
2021/07/04 00:42:52;;;;;;;7.93;2.45;;;;;;;;;;143730;728;47020;-92
2021/07/04 00:45:25;;;;;;;4.70;2.60;;;;;;;;;;143733;667;47011;-91
2021/07/04 00:47:51;;;;;;;;;;;;;;;;;;143736;978;47023;-92
2021/07/04 00:50:22;;;;;;;3.80;1.87;;;;;;;;;;143737;591;46012;-91
2021/07/04 00:52:49;;;;;;;2.37;1.92;;;;;;;;;;143734;668;46021;-90
2021/07/04 00:55:18;;;;;;;2.80;2.17;;;;;;;;;;143734;584;46020;-92
2021/07/04 00:57:46;;;;;;;4.78;2.15;;;;;;;;;;143731;952;47022;-92
2021/07/04 01:00:18;;;;;;;2.20;2.00;;;;;;;;;;143735;570;46021;-91
2021/07/04 01:02:46;;;;;;;2.85;2.10;;;;;;;;;;143732;585;47020;-92
2021/07/04 01:05:18;;;;;;;2.00;1.75;;;;;;;;;;143735;600;46018;-91
2021/07/04 01:07:46;;;;;;;3.67;1.80;;;;;;;;;;143734;590;46022;-92
2021/07/04 01:10:17;;;;;;;3.33;2.15;;;;;;;;;;143730;565;48012;-92
2021/07/04 01:12:46;;;;;;;3.58;2.22;;;;;;;;;;143735;591;46020;-91
2021/07/04 01:15:17;;;;;;;2.30;2.10;;;;;;;;;;143735;617;46013;-92
2021/07/04 01:17:48;;;;;;;2.62;2.40;;;;;;;;;;143733;566;46022;-91
2021/07/04 01:20:18;;;;;;;3.58;2.40;;;;;;;;;;143732;613;46012;-92
2021/07/04 01:23:18;;;;;;;7.82;2.42;;;;;;;;;;143731;600;47021;-89
2021/07/04 01:25:51;;;;;;;3.65;2.30;;;;;;;;;;143737;566;46014;-93
2021/07/04 01:28:20;;;;;;;5.97;2.00;;;;;;;;;;143732;774;46022;-90
2021/07/04 01:30:52;;;;;;;1.98;1.52;;;;;;;;;;143729;637;46013;-91
2021/07/04 01:33:20;;;;;;;2.55;1.50;;;;;;;;;;143733;586;46020;-91
2021/07/04 01:35:47;;;;;;;2.97;1.80;;;;;;;;;;143733;833;46012;-91
2021/07/04 01:38:14;;;;;;;2.50;1.90;;;;;;;;;;143730;609;47022;-92
2021/07/04 01:40:41;;;;;;;4.37;1.90;;;;;;;;;;143731;565;46012;-92
2021/07/04 01:43:07;;;;;;;3.00;2.10;;;;;;;;;;143733;581;47020;-93
2021/07/04 01:45:37;;;;;;;3.90;2.45;;;;;;;;;;143734;585;46013;-91
2021/07/04 01:48:04;;;;;;;3.05;2.20;;;;;;;;;;143733;867;46016;-92
2021/07/04 01:50:36;;;;;;;2.17;1.80;;;;;;;;;;143732;592;46012;-92
2021/07/04 01:53:03;;;;;;;2.87;2.28;;;;;;;;;;143732;582;47006;-91
2021/07/04 01:55:31;;;;;;;2.72;1.98;;;;;;;;;;143733;582;46012;-91
2021/07/04 01:57:58;;;;;;;4.05;2.00;;;;;;;;;;143731;600;46044;-91
2021/07/04 02:00:31;;;;;;;3.80;2.03;;;;;;;;;;143730;570;46013;-91
2021/07/04 02:03:00;;;;;;;4.95;2.50;;;;;;;;;;143733;564;46020;-92
2021/07/04 02:05:27;;;;;;;2.40;1.87;;;;;;;;;;143734;593;46012;-92
2021/07/04 02:07:54;;;;;;;4.82;1.70;;;;;;;;;;143731;575;47021;-91
2021/07/04 02:10:25;;;;;;;1.85;1.48;;;;;;;;;;143734;569;46037;-90
2021/07/04 02:12:52;;;;;;;1.65;1.37;;;;;;;;;;143735;590;46020;-91
2021/07/04 02:15:23;;;;;;;1.77;1.52;;;;;;;;;;143733;574;47012;-90
2021/07/04 02:17:50;;;;;;;6.37;1.77;;;;;;;;;;143729;569;47022;-91
2021/07/04 02:20:43;;;;;;;5.05;1.52;;;;;;;;;;143731;584;46013;-92
2021/07/04 02:23:15;;;;;;;2.03;1.75;;;;;;;;;;143732;635;46021;-92
2021/07/04 02:25:44;;;;;;;8.90;1.62;;;;;;;;;;143733;787;46012;-92
2021/07/04 02:28:13;;;;;;;1.62;1.33;;;;;;;;;;143732;566;46046;-89
2021/07/04 02:30:41;;;;;;;2.50;1.50;;;;;;;;;;143733;576;46014;-91
2021/07/04 02:33:10;;;;;;;2.45;1.55;;;;;;;;;;143732;579;47020;-91
2021/07/04 02:35:39;;;;;;;1.90;1.60;;;;;;;;;;143733;880;46013;-90
2021/07/04 02:38:07;;;;;;;3.08;1.55;;;;;;;;;;143732;611;47023;-92
2021/07/04 02:40:36;;;;;;;1.75;1.55;;;;;;;;;;143732;821;46012;-91
2021/07/04 02:43:05;;;;;;;2.03;1.62;;;;;;;;;;143734;571;46020;-90
2021/07/04 02:45:32;;;;;;;3.08;2.10;;;;;;;;;;143734;582;46012;-92
2021/07/04 02:47:59;;;;;;;2.72;1.85;;;;;;;;;;143731;864;47022;-91
2021/07/04 02:50:26;;;;;;;2.25;1.50;;;;;;;;;;143730;572;46013;-92
2021/07/04 02:52:54;;;;;;;2.25;1.83;;;;;;;;;;143736;576;46020;-91
2021/07/04 02:55:22;;;;;;;2.70;1.77;;;;;;;;;;143733;583;46012;-90
2021/07/04 02:57:50;;;;;;;6.22;2.70;;;;;;;;;;143732;929;47020;-92
2021/07/04 03:00:19;;;;;;;4.15;2.80;;;;;;;;;;143731;700;46013;-90
2021/07/04 03:02:47;;;;;;;3.17;2.83;;;;;;;;;;143732;708;47020;-92
2021/07/04 03:05:14;;;;;;;8.52;2.47;;;;;;;;;;143737;569;46012;-90
2021/07/04 03:07:42;;;;;;;3.30;2.33;;;;;;;;;;143731;586;47023;-91
2021/07/04 03:10:10;;;;;;;8.00;2.55;;;;;;;;;;143731;603;46012;-92
2021/07/04 03:12:37;;;;;;;3.87;2.37;;;;;;;;;;143733;573;46021;-91
2021/07/04 03:15:06;;;;;;;4.62;2.80;;;;;;;;;;143731;607;46012;-92
2021/07/04 03:17:32;;;;;;;3.55;2.62;;;;;;;;;;143730;594;47022;-91
2021/07/04 03:19:59;;;;;;;4.87;2.50;;;;;;;;;;143733;580;46021;-90
2021/07/04 03:22:27;;;;;;;5.45;2.05;;;;;;;;;;143733;600;46043;-91
2021/07/04 03:24:54;;;;;;;4.80;2.62;;;;;;;;;;143735;577;46020;-91
2021/07/04 03:27:21;;;;;;;3.55;2.30;;;;;;;;;;143731;614;47022;-90
2021/07/04 03:29:48;;;;;;;6.95;2.25;;;;;;;;;;143730;600;47012;-92
2021/07/04 03:32:15;;;;;;;2.92;2.50;;;;;;;;;;143733;599;47020;-91
2021/07/04 03:34:43;;;;;;;4.18;2.20;;;;;;;;;;143733;615;46013;-91
2021/07/04 03:37:10;;;;;;;5.40;2.45;;;;;;;;;;143728;591;47021;-92
2021/07/04 03:39:37;;;;;;;5.22;2.00;;;;;;;;;;143734;579;46012;-90
2021/07/04 03:42:04;;;;;;;6.22;2.25;;;;;;;;;;143731;592;47020;-91
2021/07/04 03:44:30;;;;;;;2.80;2.00;;;;;;;;;;143734;629;46012;-90
2021/07/04 03:46:57;;;;;;;3.50;1.85;;;;;;;;;;143733;582;46046;-90
2021/07/04 03:49:24;;;;;;;1.70;1.50;;;;;;;;;;143734;631;46012;-94
2021/07/04 03:51:51;;;;;;;1.87;1.60;;;;;;;;;;143731;631;47021;-90
2021/07/04 03:54:18;;;;;;;3.72;1.75;;;;;;;;;;143736;653;46012;-92
2021/07/04 03:56:45;;;;;;;2.10;1.60;;;;;;;;;;143732;626;47022;-91
2021/07/04 03:59:12;;;;;;;2.12;1.58;;;;;;;;;;143732;620;46013;-94
2021/07/04 04:01:39;;;;;;;5.25;2.42;;;;;;;;;;143732;585;46020;-92
2021/07/04 04:04:06;;;;;;;2.28;1.73;;;;;;;;;;143739;644;46012;-89
2021/07/04 04:06:33;;;;;;;4.78;1.60;;;;;;;;;;143731;576;47022;-91
2021/07/04 04:09:00;;;;;;;3.37;2.00;;;;;;;;;;143732;604;46012;-92
2021/07/04 04:11:26;;;;;;;3.25;1.80;;;;;;;;;;143734;645;47020;-92
2021/07/04 04:13:54;;;;;;;2.35;1.83;;;;;;;;;;143735;570;46013;-92
2021/07/04 04:16:21;;;;;;;2.25;1.58;;;;;;;;;;143734;645;46050;-91
2021/07/04 04:18:47;;;;;;;3.72;1.60;;;;;;;;;;143735;581;47020;-89
2021/07/04 04:21:16;;;;;;;2.25;1.75;;;;;;;;;;143734;601;47021;-92
2021/07/04 04:23:42;;;;;;;2.62;1.52;;;;;;;;;;143736;583;46012;-93
2021/07/04 04:26:09;;;;;;;2.05;1.52;;;;;;;;;;143730;565;47020;-92
2021/07/04 04:28:36;;;;;;;1.70;1.60;;;;;;;;;;143730;636;46013;-92
2021/07/04 04:31:03;;;;;;;1.92;1.40;;;;;;;;;;143733;602;47020;-91
2021/07/04 04:33:30;;;;;;;2.75;1.20;;;;;;;;;;143734;593;46012;-92
2021/07/04 04:35:58;;;;;;;3.53;1.80;;;;;;;;;;143732;608;47022;-93
2021/07/04 04:38:25;;;;;;;2.20;1.60;;;;;;;;;;143732;564;46012;-92
2021/07/04 04:40:53;;;;;;;2.10;1.40;;;;;;;;;;143733;592;47020;-88
2021/07/04 04:43:19;;;;;;;2.72;1.73;;;;;;;;;;143735;608;46012;-87
2021/07/04 04:45:46;;;;;;;3.45;1.70;;;;;;;;;;143732;659;47023;-86
2021/07/04 04:48:14;;;;;;;1.98;1.50;;;;;;;;;;143731;618;46915;-88
2021/07/04 04:50:40;;;;;;;2.47;1.40;;;;;;;;;;143732;569;46021;-89
2021/07/04 04:53:08;;;;;;;2.12;1.55;;;;;;;;;;143734;569;46012;-89
2021/07/04 04:55:35;;;;;;;3.15;1.90;;;;;;;;;;143733;796;46022;-89
2021/07/04 04:58:01;;;;;;;1.87;1.58;;;;;;;;;;143734;748;46021;-88
2021/07/04 05:00:28;;;;;;;4.40;1.67;;;;;;;;;;143733;594;46020;-85
2021/07/04 05:02:56;;;;;;;4.65;1.52;;;;;;;;;;143735;565;46018;-87
2021/07/04 05:05:23;;;;;;;3.37;1.62;;;;;;;;;;143731;570;47022;-89
2021/07/04 05:07:52;;;;;;;2.45;1.70;;;;;;;;;;143733;946;46012;-88
2021/07/04 05:10:19;;;;;;;5.93;2.15;;;;;;;;;;143736;896;46020;-87
2021/07/04 05:12:46;;;;;;;4.22;1.58;;;;;;;;;;143734;605;46018;-87
2021/07/04 05:15:13;;;;;;;2.37;2.03;;;;;;;;;;143731;566;47023;-87
2021/07/04 05:17:40;;;;;;;5.75;1.92;;;;;;;;;;143731;786;46913;-87
2021/07/04 05:20:08;;;;;;;5.28;2.35;;;;;;;;;;143734;584;47020;-88
2021/07/04 05:22:36;;;;;;;6.15;2.10;;;;;;;;;;143734;564;46012;-89
2021/07/04 05:25:05;;;;;;;15.98;3.25;;;;;;;;;;143732;583;46051;-88
2021/07/04 05:27:31;;;;;;;12.02;2.87;;;;;;;;;;143733;576;46013;-88
2021/07/04 05:29:58;;;;;;;8.43;2.40;;;;;;;;;;143733;564;47020;-88
2021/07/04 05:32:25;;;;;;;4.03;2.72;;;;;;;;;;143736;592;46012;-91
2021/07/04 05:34:52;;;;;;;3.70;2.60;;;;;;;;;;143732;776;47022;-87
2021/07/04 05:37:20;;;;;;;5.12;2.67;;;;;;;;;;143731;922;46012;-88
2021/07/04 05:39:48;;;;;;;6.30;2.58;;;;;;;;;;143735;749;46020;-89
2021/07/04 05:42:15;;;;;;;7.95;2.78;;;;;;;;;;143736;611;46021;-89
2021/07/04 05:44:41;;;;;;;5.57;2.45;;;;;;;;;;143734;974;46023;-87
2021/07/04 05:47:09;;;;;;;5.95;2.40;;;;;;;;;;143734;776;46020;-88
2021/07/04 05:49:39;;;;;;;3.67;1.90;;;;;;;;;;143736;574;46021;-89
2021/07/04 05:52:06;;;;;;;3.50;2.17;;;;;;;;;;143737;593;46018;-88
2021/07/04 05:54:33;;;;;;;6.85;2.10;;;;;;;;;;143733;591;47022;-88
2021/07/04 05:57:00;;;;;;;6.28;2.42;;;;;;;;;;143733;590;46013;-87
2021/07/04 05:59:26;;;;;;;3.25;2.28;;;;;;;;;;143736;662;46020;-87
2021/07/04 06:01:53;;;;;;;3.75;1.92;;;;;;;;;;143736;582;46012;-93
2021/07/04 06:04:20;;;;;;;3.30;2.37;;;;;;;;;;143731;954;47020;-86
2021/07/04 06:06:46;;;;;;;7.32;2.33;;;;;;;;;;143736;970;46021;-86
2021/07/04 06:09:13;;;;;;;5.75;2.10;;;;;;;;;;143734;575;47020;-89
2021/07/04 06:11:40;;;;;;;3.28;2.17;;;;;;;;;;143735;742;46020;-89
2021/07/04 06:14:07;;;;;;;3.10;2.10;;;;;;;;;;143734;622;47021;-88
2021/07/04 06:16:34;;;;;;;2.10;1.80;;;;;;;;;;143733;636;46012;-88
2021/07/04 06:19:01;;;;;;;1.95;1.80;;;;;;;;;;143735;583;46021;-94
2021/07/04 06:21:27;;;;;;;4.75;1.92;;;;;;;;;;143735;583;46012;-92
2021/07/04 06:23:54;;;;;;;8.35;1.75;;;;;;;;;;143734;595;46022;-93
2021/07/04 06:26:21;;;;;;;5.53;1.92;;;;;;;;;;143733;565;46021;-91
2021/07/04 06:28:48;;;;;;;9.45;2.50;;;;;;;;;;143733;600;47021;-94
2021/07/04 06:31:15;;;;;;;4.05;1.80;;;;;;;;;;143734;666;46012;-92
2021/07/04 06:33:42;;;;;;;3.80;1.70;;;;;;;;;;143732;572;48022;-91
2021/07/04 06:36:09;;;;;;;2.33;1.90;;;;;;;;;;143735;564;47020;-93
2021/07/04 06:38:39;;;;;;;3.80;1.77;;;;;;;;;;143738;588;45020;-94
2021/07/04 06:41:06;;;;;;;1.90;1.67;;;;;;;;;;143734;564;47012;-93
2021/07/04 06:43:34;;;;;;;1.55;1.45;;;;;;;;;;143732;764;47023;-91
2021/07/04 06:46:05;;;;;;;2.53;1.58;;;;;;;;;;143735;574;46913;-93
2021/07/04 06:48:33;;;;;;;4.43;1.90;;;;;;;;;;143736;587;46020;-92
2021/07/04 06:51:01;;;;;;;2.15;1.62;;;;;;;;;;143736;671;46013;-90
2021/07/04 06:53:28;;;;;;;3.67;1.98;;;;;;;;;;143731;599;47022;-90
2021/07/04 06:56:10;;;;;;;1.83;1.62;;;;;;;;;;143733;592;46915;-91
2021/07/04 06:58:37;;;;;;;4.15;2.08;;;;;;;;;;143740;602;45021;-92
2021/07/04 07:01:17;;;;;;;4.72;2.03;;;;;;;;;;143735;582;46014;-93
2021/07/04 07:03:44;;;;;;;3.55;1.80;;;;;;;;;;143735;594;46017;-95
2021/07/04 07:06:13;;;;;;;5.82;1.58;;;;;;;;;;143733;565;46012;-92
2021/07/04 07:08:40;;;;;;;2.53;1.62;;;;;;;;;;143737;587;46020;-91
2021/07/04 07:11:07;;;;;;;2.30;2.00;;;;;;;;;;143736;629;46020;-90
2021/07/04 07:13:33;;;;;;;5.57;1.70;;;;;;;;;;143734;695;47021;-93
2021/07/04 07:16:00;;;;;;;2.75;1.90;;;;;;;;;;143732;584;46012;-90
2021/07/04 07:18:31;;;;;;;4.70;2.00;;;;;;;;;;143733;588;46020;-91
2021/07/04 07:20:58;;;;;;;2.62;1.95;;;;;;;;;;143735;565;46018;-92
2021/07/04 07:23:30;;;;;;;1.60;1.45;;;;;;;;;;143734;583;46022;-93
2021/07/04 07:25:57;;;;;;;4.95;2.03;;;;;;;;;;143737;583;46013;-90
2021/07/04 07:28:26;;;;;;;4.62;1.58;;;;;;;;;;143736;567;46021;-91
2021/07/04 07:30:54;;;;;;;4.10;1.70;;;;;;;;;;143737;590;46020;-89
2021/07/04 07:33:21;;;;;;;2.80;1.60;;;;;;;;;;143733;590;47021;-90
2021/07/04 07:35:51;;;;;;;2.33;1.77;;;;;;;;;;143733;609;46012;-92
2021/07/04 07:38:18;;;;;;;1.87;1.60;;;;;;;;;;143737;657;46038;-91
2021/07/04 07:40:46;;;;;;;2.47;1.70;;;;;;;;;;143735;598;46020;-91
2021/07/04 07:43:13;;;;;;;2.75;1.87;;;;;;;;;;143736;712;46020;-91
2021/07/04 07:45:41;;;;;;;2.95;1.50;;;;;;;;;;143735;577;46020;-90
2021/07/04 07:48:07;;;;;;;3.78;2.03;;;;;;;;;;143734;579;46020;-93
2021/07/04 07:50:34;;;;;;;4.97;1.75;;;;;;;;;;143735;690;46033;-91
2021/07/04 07:53:02;;;;;;;2.90;1.80;;;;;;;;;;143732;697;47022;-93
2021/07/04 07:55:30;;;;;;;3.50;1.77;;;;;;;;;;143734;585;46012;-92
2021/07/04 08:03:00;;;;;;;2.47;1.52;;;;;;;;;;143734;570;46015;-64
2021/07/04 08:05:26;;;;;;;3.10;1.80;;;;;;;;;;143732;635;46021;-64
2021/07/04 08:07:53;;;;;;;2.20;1.87;;;;;;;;;;143733;573;47020;-63
2021/07/04 08:10:20;;;;;;;3.35;2.35;;;;;;;;;;143735;583;46013;-64
2021/07/04 08:12:46;;;;;;;1.87;1.58;;;;;;;;;;143733;569;47023;-64
2021/07/04 08:15:13;;;;;;;3.25;1.70;;;;;;;;;;143732;604;46020;-65
2021/07/04 08:17:40;;;;;;;2.00;1.70;;;;;;;;;;143735;589;47020;-63
2021/07/04 08:20:08;;;;;;;2.17;1.98;;;;;;;;;;143735;564;46013;-64
2021/07/04 08:22:35;;;;;;;2.00;1.80;;;;;;;;;;143733;587;47022;-64
2021/07/04 08:25:01;;;;;;;2.67;2.47;;;;;;;;;;143730;594;46012;-63
2021/07/04 08:27:28;;;;;;;3.28;2.35;;;;;;;;;;143736;589;47020;-65
2021/07/04 08:29:54;;;;;;;2.78;2.05;;;;;;;;;;143735;590;46012;-64
2021/07/04 08:32:21;;;;;;;2.50;1.77;;;;;;;;;;143729;586;47022;-64
2021/07/04 08:34:47;;;;;;;2.83;1.70;;;;;;;;;;143735;553;46021;-63
2021/07/04 08:37:14;;;;;;;2.90;1.67;;;;;;;;;;143734;596;47020;-62
2021/07/04 08:39:40;;;;;;;5.00;1.90;;;;;;;;;;143734;650;46012;-63
2021/07/04 08:42:07;;;;;;;2.08;1.87;;;;;;;;;;143734;601;47020;-64
2021/07/04 08:44:34;;;;;;;2.50;2.28;;;;;;;;;;143732;587;46012;-64
2021/07/04 08:47:00;;;;;;;6.43;2.83;;;;;;;;;;143736;563;47020;-64
2021/07/04 08:49:27;;;;;;;2.95;2.03;;;;;;;;;;143735;699;46021;-63
2021/07/04 08:51:53;;;;;;;5.47;2.20;;;;;;;;;;143733;675;47020;-63
2021/07/04 08:54:20;;;;;;;3.95;2.12;;;;;;;;;;143731;598;46012;-63
2021/07/04 08:56:50;;;;;;;2.78;2.58;;;;;;;;;;143732;634;47021;-65
2021/07/04 08:59:16;;;;;;;2.95;2.55;;;;;;;;;;143735;600;46012;-64
2021/07/04 09:01:48;;;;;;;2.85;1.80;;;;;;;;;;143732;586;47020;-63
2021/07/04 09:04:20;;;;;;;2.70;2.23;;;;;;;;;;143734;596;46013;-65
2021/07/04 09:06:52;;;;;;;4.20;2.30;;;;;;;;;;143736;832;46020;-64
2021/07/04 09:09:24;;;;;;;2.08;1.73;;;;;;;;;;143736;584;46012;-63
2021/07/04 09:12:11;;;;;;;7.43;2.58;;;;;;;;;;143736;828;47021;-64
2021/07/04 09:14:46;;;;;;;2.78;2.05;;;;;;;;;;143732;576;46012;-64
2021/07/04 09:17:15;;;;;;;5.43;3.05;;;;;;;;;;143735;590;47020;-64
2021/07/04 09:19:54;;;;;;;7.32;2.95;;;;;;;;;;143736;590;46012;-63
2021/07/04 09:22:37;;;;;;;2.28;2.08;;;;;;;;;;143731;585;47020;-65
2021/07/04 09:25:19;;;;;;;2.37;2.08;;;;;;;;;;143734;576;46013;-64
2021/07/04 09:28:12;;;;;;;6.30;2.58;;;;;;;;;;143735;564;47020;-64
2021/07/04 09:30:56;;;;;;;3.65;2.65;;;;;;;;;;143739;663;46021;-64
2021/07/04 09:33:31;;;;;;;2.22;2.03;;;;;;;;;;143732;574;47022;-63
2021/07/04 09:36:07;;;;;;;4.97;2.25;;;;;;;;;;143734;580;46012;-64
2021/07/04 09:38:39;;;;;;;6.97;2.50;;;;;;;;;;143733;578;47020;-64
2021/07/04 09:41:07;;;;;;;;;;;;;;;;;;143740;978;46020;-64
2021/07/04 09:43:34;;;;;;;4.07;2.83;;;;;;;;;;143738;670;47020;-64
2021/07/04 09:46:06;;;;;;;3.95;2.95;;;;;;;;;;143734;593;46020;-65
2021/07/04 09:48:39;;;;;;;5.87;2.92;;;;;;;;;;143732;693;46021;-64
2021/07/04 09:51:11;;;;;;;4.68;3.03;;;;;;;;;;143736;586;46018;-66
2021/07/04 09:53:53;;;;;;;8.73;3.45;;;;;;;;;;143734;587;47020;-64
2021/07/04 09:56:23;;;;;;;2.12;1.92;;;;;;;;;;143733;564;46010;-65
2021/07/04 09:58:57;;;;;;;4.10;2.28;;;;;;;;;;143734;599;47020;-64
2021/07/04 10:01:45;;;;;;;5.47;3.03;;;;;;;;;;143734;610;47019;-65
2021/07/04 10:04:32;;;;;;;7.20;3.60;;;;;;;;;;143734;590;47020;-64
2021/07/04 10:06:59;;;;;;;5.03;4.32;;;;;;;;;;143732;574;46012;-63
2021/07/04 10:09:29;;;;;;;2.95;2.42;;;;;;;;;;143735;576;47020;-63
2021/07/04 10:11:56;;;;;;;6.22;2.47;;;;;;;;;;143735;579;46012;-65
2021/07/04 10:14:22;;;;;;;3.65;2.50;;;;;;;;;;143728;569;47020;-65
2021/07/04 10:16:49;;;;;;;3.70;2.50;;;;;;;;;;143730;570;46010;-63
2021/07/04 10:19:27;;;;;;;5.12;2.37;;;;;;;;;;143732;609;47021;-64
2021/07/04 10:22:02;;;;;;;6.97;2.22;;;;;;;;;;143734;564;46012;-62
2021/07/04 10:24:29;;;;;;;6.57;2.90;;;;;;;;;;143730;668;47022;-64
2021/07/04 10:26:58;;;;;;;2.42;2.20;;;;;;;;;;143733;604;46012;-65
2021/07/04 10:29:28;;;;;;;4.50;2.70;;;;;;;;;;143733;576;47020;-63
2021/07/04 10:32:05;;;;;;;4.45;2.47;;;;;;;;;;143734;698;46011;-64
2021/07/04 10:34:44;;;;;;;5.90;2.37;;;;;;;;;;143731;646;47023;-64
2021/07/04 10:37:11;;;;;;;2.78;2.30;;;;;;;;;;143731;581;46012;-65
2021/07/04 10:39:38;;;;;;;2.33;2.03;;;;;;;;;;143728;571;47021;-64
2021/07/04 10:42:09;;;;;;;3.28;2.10;;;;;;;;;;143732;571;46021;-64
2021/07/04 10:44:54;;;;;;;4.53;2.33;;;;;;;;;;143731;697;47022;-64
2021/07/04 10:47:32;;;;;;;8.63;2.53;;;;;;;;;;143731;588;46020;-64
2021/07/04 10:50:13;;;;;;;3.65;2.37;;;;;;;;;;143733;574;47020;-64
2021/07/04 10:52:53;;;;;;;2.53;2.15;;;;;;;;;;143733;631;46012;-66
2021/07/04 10:55:33;;;;;;;4.18;3.30;;;;;;;;;;143730;721;47021;-63
2021/07/04 10:58:02;;;;;;;2.87;2.60;;;;;;;;;;143729;680;46012;-63
2021/07/04 11:00:37;;;;;;;4.25;2.80;;;;;;;;;;143731;641;47020;-63
2021/07/04 11:03:26;;;;;;;4.50;2.70;;;;;;;;;;143732;592;46013;-63
2021/07/04 11:05:53;;;;;;;4.30;2.12;;;;;;;;;;143729;681;47020;-63
2021/07/04 11:08:28;;;;;;;3.12;2.40;;;;;;;;;;143729;574;46012;-64
2021/07/04 11:11:12;;;;;;;10.43;2.50;;;;;;;;;;143730;671;47021;-64
2021/07/04 11:13:42;;;;;;;3.83;2.60;;;;;;;;;;143733;669;46012;-64
2021/07/04 11:16:15;;;;;;;3.97;2.20;;;;;;;;;;143730;578;47021;-64
2021/07/04 11:18:55;;;;;;;5.15;2.40;;;;;;;;;;143731;615;46013;-64
2021/07/04 11:21:45;;;;;;;3.03;2.72;;;;;;;;;;143732;580;47020;-63
2021/07/04 11:24:30;;;;;;;4.30;2.97;;;;;;;;;;143732;683;46020;-63
2021/07/04 11:27:22;;;;;;;8.07;2.67;;;;;;;;;;143731;681;47020;-65
2021/07/04 11:30:24;;;;;;;10.07;3.30;;;;;;;;;;143731;637;46012;-63
2021/07/04 11:33:21;;;;;;;2.80;2.12;;;;;;;;;;143730;611;47021;-65
2021/07/04 11:35:48;;;;;;;5.55;2.80;;;;;;;;;;143733;648;46012;-63
2021/07/04 11:38:16;;;;;;;5.72;2.78;;;;;;;;;;143731;613;47022;-63
2021/07/04 11:40:44;;;;;;;5.20;2.90;;;;;;;;;;143730;590;46013;-65
2021/07/04 11:43:15;;;;;;;4.65;2.83;;;;;;;;;;143731;574;47020;-63
2021/07/04 11:45:57;;;;;;;4.35;2.85;;;;;;;;;;143734;630;46012;-64
2021/07/04 11:48:46;;;;;;;6.32;3.55;;;;;;;;;;143732;595;46023;-63
2021/07/04 11:51:44;;;;;;;4.55;2.70;;;;;;;;;;143730;565;46012;-64
2021/07/04 11:54:22;;;;;;;3.10;2.53;;;;;;;;;;143732;589;47020;-64
2021/07/04 11:56:54;;;;;;;3.10;2.47;;;;;;;;;;143735;626;46010;-62
2021/07/04 11:59:23;;;;;;;2.70;2.20;;;;;;;;;;143729;580;47022;-63
2021/07/04 12:02:01;;;;;;;2.90;2.60;;;;;;;;;;143731;572;46010;-63
2021/07/04 12:04:39;;;;;;;3.55;2.28;;;;;;;;;;143732;573;46021;-65
2021/07/04 12:07:09;;;;;;;2.40;2.05;;;;;;;;;;143733;612;46012;-62
2021/07/04 12:10:01;;;;;;;2.42;2.10;;;;;;;;;;143729;579;47021;-64
2021/07/04 12:12:33;;;;;;;5.15;1.90;;;;;;;;;;143729;607;46020;-64
2021/07/04 12:15:11;;;;;;;2.37;2.10;;;;;;;;;;143733;571;47020;-63
2021/07/04 12:17:45;;;;;;;3.70;2.30;;;;;;;;;;143733;571;46013;-64
2021/07/04 12:20:24;;;;;;;3.25;1.90;;;;;;;;;;143731;624;47022;-64
2021/07/04 12:23:02;;;;;;;3.67;2.17;;;;;;;;;;143729;595;46012;-63
2021/07/04 12:25:34;;;;;;;2.58;2.12;;;;;;;;;;143732;566;46021;-64
2021/07/04 12:28:06;;;;;;;5.20;2.45;;;;;;;;;;143733;609;46020;-64
2021/07/04 12:30:35;;;;;;;2.60;2.40;;;;;;;;;;143731;584;47020;-64
2021/07/04 12:33:13;;;;;;;3.00;2.20;;;;;;;;;;143728;639;46012;-66
2021/07/04 12:35:45;;;;;;;2.83;1.85;;;;;;;;;;143733;572;46020;-65
2021/07/04 12:38:28;;;;;;;4.37;2.28;;;;;;;;;;143736;597;46020;-64
2021/07/04 12:41:00;;;;;;;2.55;2.30;;;;;;;;;;143732;612;46023;-64
2021/07/04 12:43:40;;;;;;;4.07;2.60;;;;;;;;;;143732;616;46010;-64
2021/07/04 12:46:24;;;;;;;3.28;2.45;;;;;;;;;;143732;566;47020;-64
2021/07/04 12:48:56;;;;;;;2.70;1.98;;;;;;;;;;143733;578;46012;-64
2021/07/04 12:51:28;;;;;;;4.22;2.55;;;;;;;;;;143731;576;46022;-63
2021/07/04 12:53:54;;;;;;;5.78;2.67;;;;;;;;;;143731;614;46010;-64
2021/07/04 12:56:28;;;;;;;3.45;2.03;;;;;;;;;;143731;586;46021;-63
2021/07/04 12:58:59;;;;;;;2.67;2.47;;;;;;;;;;143733;580;46012;-65
2021/07/04 13:01:37;;;;;;;5.25;2.37;;;;;;;;;;143731;590;46022;-64
2021/07/04 13:04:16;;;;;;;2.35;2.15;;;;;;;;;;143729;582;46012;-65
2021/07/04 13:07:11;;;;;;;2.35;1.92;;;;;;;;;;143733;573;46020;-64
2021/07/04 13:09:47;;;;;;;4.05;2.30;;;;;;;;;;143731;625;46012;-65
2021/07/04 13:12:21;;;;;;;4.78;2.10;;;;;;;;;;143729;674;47022;-65
2021/07/04 13:14:49;;;;;;;3.87;2.60;;;;;;;;;;143731;647;46010;-64
2021/07/04 13:17:37;;;;;;;2.95;2.50;;;;;;;;;;143731;569;47021;-65
2021/07/04 13:20:19;;;;;;;3.90;2.55;;;;;;;;;;143733;572;46012;-61
2021/07/04 13:22:48;;;;;;;3.05;2.53;;;;;;;;;;143729;564;47021;-66
2021/07/04 13:25:35;;;;;;;9.48;2.47;;;;;;;;;;143728;697;46918;-65
2021/07/04 13:28:09;;;;;;;2.62;2.12;;;;;;;;;;143733;592;47020;-64
2021/07/04 13:30:56;;;;;;;3.97;2.33;;;;;;;;;;143733;613;46012;-64
2021/07/04 13:33:30;;;;;;;11.82;3.28;;;;;;;;;;143731;642;47025;-63
2021/07/04 13:36:07;;;;;;;3.90;1.90;;;;;;;;;;143730;565;46012;-65
2021/07/04 13:38:33;;;;;;;5.78;2.40;;;;;;;;;;143731;631;47021;-64
2021/07/04 13:41:00;;;;;;;3.03;2.03;;;;;;;;;;143733;647;46012;-63
2021/07/04 13:43:28;;;;;;;2.70;2.22;;;;;;;;;;143729;592;47022;-63
2021/07/04 13:45:55;;;;;;;4.80;2.28;;;;;;;;;;143728;619;49021;-64
2021/07/04 13:48:27;;;;;;;3.70;2.03;;;;;;;;;;143733;667;46021;-63
2021/07/04 13:51:03;;;;;;;3.30;2.67;;;;;;;;;;143733;592;46020;-65
2021/07/04 13:53:30;;;;;;;3.47;2.05;;;;;;;;;;143730;571;47020;-65
2021/07/04 13:55:59;;;;;;;4.25;2.50;;;;;;;;;;143729;629;46012;-65
2021/07/04 13:58:27;;;;;;;5.85;2.20;;;;;;;;;;143732;682;47020;-66
2021/07/04 14:00:57;;;;;;;5.55;1.62;;;;;;;;;;143731;601;47019;-65
2021/07/04 14:03:24;;;;;;;5.12;2.20;;;;;;;;;;143730;585;47023;-65
2021/07/04 14:05:51;;;;;;;2.80;1.95;;;;;;;;;;143731;578;47010;-64
2021/07/04 14:08:18;;;;;;;3.70;1.85;;;;;;;;;;143731;705;47020;-65
2021/07/04 14:10:48;;;;;;;3.55;1.80;;;;;;;;;;143730;585;46012;-65
2021/07/04 14:13:15;;;;;;;1.87;1.73;;;;;;;;;;143731;614;46022;-64
2021/07/04 14:15:41;;;;;;;2.67;1.60;;;;;;;;;;143732;599;46010;-64
2021/07/04 14:18:08;;;;;;;3.72;1.87;;;;;;;;;;143730;612;46021;-63
2021/07/04 14:20:35;;;;;;;5.50;2.30;;;;;;;;;;143732;591;46018;-63
2021/07/04 14:23:01;;;;;;;2.60;1.90;;;;;;;;;;143732;701;47021;-65
2021/07/04 14:25:28;;;;;;;2.20;2.00;;;;;;;;;;143730;589;46012;-64
2021/07/04 14:27:55;;;;;;;2.25;1.90;;;;;;;;;;143731;571;46020;-64
2021/07/04 14:30:24;;;;;;;2.80;2.10;;;;;;;;;;143734;585;46011;-63
2021/07/04 14:32:51;;;;;;;3.47;2.25;;;;;;;;;;143729;589;47020;-65
2021/07/04 14:35:20;;;;;;;2.25;2.05;;;;;;;;;;143728;571;46918;-64
2021/07/04 14:37:48;;;;;;;3.72;1.60;;;;;;;;;;143732;565;47020;-66
2021/07/04 14:40:16;;;;;;;3.15;1.98;;;;;;;;;;143731;688;48021;-64
2021/07/04 14:42:42;;;;;;;3.78;1.80;;;;;;;;;;143730;569;47022;-64
2021/07/04 14:45:11;;;;;;;1.98;1.77;;;;;;;;;;143728;695;47013;-64
2021/07/04 14:47:38;;;;;;;1.90;1.70;;;;;;;;;;143732;581;47020;-65
2021/07/04 14:50:06;;;;;;;5.22;1.83;;;;;;;;;;143732;574;46012;-64
2021/07/04 14:52:33;;;;;;;2.25;1.90;;;;;;;;;;143728;591;48012;-65
2021/07/04 14:55:00;;;;;;;4.00;1.80;;;;;;;;;;143731;599;46012;-64
2021/07/04 14:57:27;;;;;;;5.28;2.00;;;;;;;;;;143729;578;47020;-65
2021/07/04 14:59:54;;;;;;;2.20;1.75;;;;;;;;;;143733;576;46020;-66
2021/07/04 15:02:22;;;;;;;11.82;2.20;;;;;;;;;;143733;696;47020;-64
2021/07/04 15:04:50;;;;;;;2.78;1.92;;;;;;;;;;143729;574;47012;-64
2021/07/04 15:07:21;;;;;;;3.05;1.60;;;;;;;;;;143732;717;47020;-64